Time;durP1;ratioP1;P1;durP2;ratioP2;P2;SDS_P1;SDS_P2;PMS_P1;PMS_P2;Temp;Humidity;BMP_temperature;BMP_pressure;BME280_temperature;BME280_humidity;BME280_pressure;Samples;Min_cycle;Max_cycle;Signal;HPM_P1;HPM_P2
2023/11/27 00:02:06;;;;;;;8.10;5.20;;;6.50;97.40;;;;;;6096743;23;20482;-83
2023/11/27 00:04:32;;;;;;;10.40;6.30;;;6.50;97.50;;;;;;6123377;23;20002;-83
2023/11/27 00:06:58;;;;;;;9.43;6.18;;;6.50;97.50;;;;;;6097512;23;20009;-83
2023/11/27 00:09:23;;;;;;;11.00;5.82;;;6.40;97.60;;;;;;6124696;23;20006;-82
2023/11/27 00:11:49;;;;;;;10.77;6.90;;;6.40;97.70;;;;;;6098732;23;20081;-84
2023/11/27 00:14:14;;;;;;;8.65;5.72;;;6.40;97.70;;;;;;6124254;23;20045;-84
2023/11/27 00:16:41;;;;;;;9.45;5.45;;;6.40;97.80;;;;;;6114024;23;20001;-81
2023/11/27 00:19:07;;;;;;;7.00;5.07;;;6.40;97.90;;;;;;6129089;23;20005;-83
2023/11/27 00:21:33;;;;;;;9.52;6.22;;;6.40;98.00;;;;;;6102676;23;20093;-84
2023/11/27 00:23:59;;;;;;;11.55;7.03;;;6.40;98.00;;;;;;6103332;23;20056;-84
2023/11/27 00:26:25;;;;;;;9.45;6.25;;;6.30;98.10;;;;;;6101514;23;20006;-80
2023/11/27 00:28:50;;;;;;;9.18;5.72;;;6.30;98.10;;;;;;6102682;23;20012;-83
2023/11/27 00:31:16;;;;;;;10.77;6.75;;;6.30;98.20;;;;;;6129925;23;20026;-81
2023/11/27 00:33:44;;;;;;;10.07;6.93;;;6.30;98.20;;;;;;6103396;23;20009;-83
2023/11/27 00:36:09;;;;;;;7.65;5.47;;;6.30;98.30;;;;;;6103146;23;20065;-80
2023/11/27 00:38:37;;;;;;;8.15;4.53;;;6.30;98.40;;;;;;6101168;23;20556;-83
2023/11/27 00:41:03;;;;;;;5.03;3.35;;;6.40;98.50;;;;;;6101148;23;20025;-83
2023/11/27 00:43:29;;;;;;;4.10;2.95;;;6.40;98.50;;;;;;6100185;23;20424;-82
2023/11/27 00:45:55;;;;;;;4.20;3.00;;;6.40;98.50;;;;;;6127217;23;20379;-80
2023/11/27 00:48:20;;;;;;;5.75;3.22;;;6.50;98.50;;;;;;6098226;23;20085;-83
2023/11/27 00:50:46;;;;;;;7.22;4.28;;;6.50;98.50;;;;;;6125641;23;20458;-82
2023/11/27 00:53:11;;;;;;;6.05;3.97;;;6.50;98.40;;;;;;6100741;23;20009;-82
2023/11/27 00:55:37;;;;;;;5.22;3.38;;;6.50;98.40;;;;;;6101170;23;20519;-79
2023/11/27 00:58:02;;;;;;;8.52;4.93;;;6.50;98.40;;;;;;6100688;23;20006;-83
2023/11/27 01:00:28;;;;;;;6.97;4.18;;;6.50;98.40;;;;;;6126847;23;20009;-83
2023/11/27 01:02:53;;;;;;;8.23;5.00;;;6.60;98.40;;;;;;6126967;23;20025;-82
2023/11/27 01:05:19;;;;;;;8.40;4.85;;;6.50;98.40;;;;;;6100132;23;20060;-82
2023/11/27 01:07:45;;;;;;;6.72;4.30;;;6.50;98.40;;;;;;6126278;23;20040;-82
2023/11/27 01:10:10;;;;;;;10.52;5.53;;;6.50;98.50;;;;;;6099842;23;20495;-82
2023/11/27 01:12:43;;;;;;;5.95;3.90;;;6.50;98.50;;;;;;6101417;23;20029;-81
2023/11/27 01:15:09;;;;;;;6.38;3.95;;;6.50;98.50;;;;;;6125542;23;20002;-82
2023/11/27 01:17:35;;;;;;;7.38;4.22;;;6.50;98.50;;;;;;6127287;23;20029;-83
2023/11/27 01:20:00;;;;;;;6.75;4.15;;;6.50;98.50;;;;;;6113723;23;20020;-84
2023/11/27 01:22:26;;;;;;;9.93;6.20;;;6.60;98.50;;;;;;6126994;23;20033;-81
2023/11/27 01:24:51;;;;;;;7.32;4.53;;;6.50;98.40;;;;;;6128554;23;20332;-82
2023/11/27 01:27:18;;;;;;;9.40;5.47;;;6.50;98.50;;;;;;6127447;23;20005;-84
2023/11/27 01:29:43;;;;;;;7.40;4.97;;;6.50;98.40;;;;;;6128942;23;20317;-81
2023/11/27 01:32:09;;;;;;;5.78;3.88;;;6.50;98.50;;;;;;6125624;23;20013;-83
2023/11/27 01:34:35;;;;;;;8.52;4.90;;;6.50;98.50;;;;;;6127031;23;20002;-80
2023/11/27 01:37:01;;;;;;;10.35;5.57;;;6.50;98.40;;;;;;6126383;23;20002;-84
2023/11/27 01:39:27;;;;;;;11.82;5.85;;;6.50;98.40;;;;;;6127828;23;20013;-81
2023/11/27 01:41:52;;;;;;;8.63;5.15;;;6.50;98.50;;;;;;6131871;23;20006;-81
2023/11/27 01:44:18;;;;;;;12.70;6.90;;;6.50;98.40;;;;;;6127020;23;20506;-80
2023/11/27 01:46:46;;;;;;;11.43;6.68;;;6.40;98.40;;;;;;6129453;23;20010;-82
2023/11/27 01:49:12;;;;;;;10.27;6.25;;;6.40;98.50;;;;;;6129613;23;20002;-83
2023/11/27 01:51:39;;;;;;;8.05;4.55;;;6.30;98.50;;;;;;6135311;23;20002;-83
2023/11/27 01:54:05;;;;;;;7.78;4.40;;;6.40;98.60;;;;;;6139809;23;20002;-83
2023/11/27 01:56:33;;;;;;;8.77;4.43;;;6.40;98.60;;;;;;6133983;23;20489;-81
2023/11/27 01:59:00;;;;;;;8.52;5.13;;;6.40;98.50;;;;;;6134562;23;20009;-82
2023/11/27 02:01:28;;;;;;;6.72;4.05;;;6.40;98.50;;;;;;6133978;23;20006;-83
2023/11/27 02:03:54;;;;;;;10.05;5.03;;;6.40;98.80;;;;;;6135773;23;20016;-84
2023/11/27 02:06:20;;;;;;;9.82;5.68;;;6.40;98.50;;;;;;6133817;23;20024;-84
2023/11/27 02:08:46;;;;;;;8.27;5.28;;;6.30;98.40;;;;;;6135628;23;20038;-82
2023/11/27 02:11:17;;;;;;;8.40;4.55;;;6.30;98.50;;;;;;6136332;23;20010;-81
2023/11/27 02:13:43;;;;;;;9.45;4.80;;;6.30;98.50;;;;;;6135863;23;20029;-82
2023/11/27 02:16:09;;;;;;;6.97;4.13;;;6.20;98.50;;;;;;6130298;23;20010;-81
2023/11/27 02:18:35;;;;;;;7.20;4.30;;;6.20;98.60;;;;;;6129096;23;20002;-81
2023/11/27 02:21:02;;;;;;;8.93;5.57;;;6.20;98.60;;;;;;6130751;23;20601;-82
2023/11/27 02:23:27;;;;;;;9.13;4.97;;;6.30;98.60;;;;;;6129543;23;20010;-82
2023/11/27 02:25:53;;;;;;;8.85;5.00;;;6.20;98.60;;;;;;6106647;23;20013;-82
2023/11/27 02:28:18;;;;;;;13.95;6.57;;;6.20;98.60;;;;;;6107082;23;20005;-82
2023/11/27 02:30:44;;;;;;;8.52;4.72;;;6.10;98.60;;;;;;6105291;23;20432;-83
2023/11/27 02:33:09;;;;;;;7.85;4.43;;;6.10;98.70;;;;;;6108334;23;20062;-81
2023/11/27 02:35:35;;;;;;;9.43;4.82;;;6.10;98.80;;;;;;6110009;23;20044;-84
2023/11/27 02:38:01;;;;;;;10.10;5.82;;;6.10;98.80;;;;;;6108052;23;20002;-82
2023/11/27 02:40:28;;;;;;;12.73;6.60;;;6.10;98.80;;;;;;6132776;23;20025;-81
2023/11/27 02:42:54;;;;;;;12.70;5.85;;;6.00;98.90;;;;;;6106373;23;20013;-80
2023/11/27 02:45:19;;;;;;;6.95;4.20;;;6.00;98.90;;;;;;6133835;23;20025;-80
2023/11/27 02:47:45;;;;;;;8.38;4.50;;;6.10;99.00;;;;;;6132530;23;19998;-80
2023/11/27 02:50:11;;;;;;;8.52;5.10;;;6.10;99.00;;;;;;6133034;23;20077;-82
2023/11/27 02:52:36;;;;;;;9.57;4.97;;;6.10;99.00;;;;;;6109309;23;20368;-84
2023/11/27 02:55:02;;;;;;;9.70;4.50;;;6.10;99.00;;;;;;6134945;23;19998;-80
2023/11/27 02:57:27;;;;;;;8.00;4.53;;;6.10;99.00;;;;;;6107519;23;20153;-82
2023/11/27 02:59:53;;;;;;;11.27;5.78;;;6.10;99.20;;;;;;6132729;23;20383;-79
2023/11/27 03:02:20;;;;;;;9.88;5.68;;;6.10;99.00;;;;;;6106095;23;20002;-81
2023/11/27 03:04:46;;;;;;;9.55;5.18;;;6.10;99.00;;;;;;6107275;23;20025;-80
2023/11/27 03:07:11;;;;;;;7.35;4.60;;;6.10;99.00;;;;;;6132445;23;20343;-82
2023/11/27 03:09:37;;;;;;;9.85;4.78;;;6.10;99.00;;;;;;6104300;23;20006;-82
2023/11/27 03:12:03;;;;;;;8.98;5.00;;;6.10;99.00;;;;;;6103766;23;20053;-82
2023/11/27 03:14:29;;;;;;;8.43;4.78;;;6.10;99.00;;;;;;6103222;23;20010;-80
2023/11/27 03:16:55;;;;;;;9.32;5.28;;;6.10;99.20;;;;;;6102371;23;20060;-83
2023/11/27 03:19:21;;;;;;;8.20;4.78;;;6.00;98.90;;;;;;6128651;23;20010;-82
2023/11/27 03:21:47;;;;;;;8.30;4.70;;;6.00;99.00;;;;;;6103691;23;20010;-79
2023/11/27 03:24:13;;;;;;;10.40;5.18;;;6.10;99.00;;;;;;6109196;23;20032;-84
2023/11/27 03:26:38;;;;;;;9.20;6.25;;;6.10;99.00;;;;;;6109748;23;20057;-80
2023/11/27 03:29:04;;;;;;;7.03;4.07;;;6.10;99.00;;;;;;6134399;23;20005;-83
2023/11/27 03:31:30;;;;;;;9.77;5.00;;;6.10;99.00;;;;;;6132602;23;19998;-82
2023/11/27 03:33:57;;;;;;;8.65;5.47;;;6.00;98.90;;;;;;6105646;23;20005;-83
2023/11/27 03:36:23;;;;;;;10.55;6.03;;;6.10;98.90;;;;;;6130373;23;20006;-80
2023/11/27 03:38:49;;;;;;;9.80;5.38;;;6.00;98.90;;;;;;6104653;23;20100;-82
2023/11/27 03:41:21;;;;;;;12.07;6.03;;;6.00;99.00;;;;;;6130065;23;20006;-82
2023/11/27 03:43:47;;;;;;;9.25;5.28;;;6.00;99.00;;;;;;6130310;23;20350;-82
2023/11/27 03:46:13;;;;;;;11.05;5.30;;;6.00;99.00;;;;;;6103372;23;20029;-80
2023/11/27 03:48:39;;;;;;;8.10;4.63;;;6.00;99.00;;;;;;6130597;23;20072;-82
2023/11/27 03:51:08;;;;;;;9.20;4.72;;;6.10;99.10;;;;;;6130295;23;20006;-84
2023/11/27 03:53:34;;;;;;;8.13;4.57;;;6.10;99.00;;;;;;6129318;23;20006;-83
2023/11/27 03:55:59;;;;;;;10.55;5.60;;;6.10;99.10;;;;;;6130014;23;20104;-82
2023/11/27 03:58:25;;;;;;;10.05;5.40;;;6.10;99.00;;;;;;6103456;23;20017;-85
2023/11/27 04:00:51;;;;;;;12.15;5.15;;;6.10;99.00;;;;;;6130965;23;20080;-81
2023/11/27 04:03:16;;;;;;;5.65;3.83;;;6.10;99.00;;;;;;6106200;23;20002;-82
2023/11/27 04:05:42;;;;;;;9.98;5.63;;;6.10;99.00;;;;;;6107891;23;20012;-82
2023/11/27 04:08:08;;;;;;;11.48;5.78;;;6.10;98.90;;;;;;6132136;23;19998;-84
2023/11/27 04:10:34;;;;;;;9.48;5.25;;;6.10;98.80;;;;;;6133597;23;20081;-85
2023/11/27 04:13:00;;;;;;;9.23;4.45;;;6.00;98.90;;;;;;6106403;23;20089;-82
2023/11/27 04:15:25;;;;;;;7.20;4.35;;;6.00;99.00;;;;;;6105110;23;20002;-82
2023/11/27 04:17:54;;;;;;;8.35;5.10;;;6.10;99.00;;;;;;6105213;23;20034;-82
2023/11/27 04:20:20;;;;;;;9.60;4.95;;;6.10;99.00;;;;;;6132041;23;20014;-83
2023/11/27 04:22:46;;;;;;;7.28;4.20;;;6.00;98.90;;;;;;6105135;23;20077;-83
2023/11/27 04:25:12;;;;;;;8.95;5.07;;;6.10;99.00;;;;;;6104473;23;20014;-81
2023/11/27 04:27:38;;;;;;;8.13;4.40;;;6.10;99.00;;;;;;6104426;23;20313;-82
2023/11/27 04:30:08;;;;;;;4.65;3.00;;;6.10;99.00;;;;;;6104450;23;20018;-82
2023/11/27 04:32:34;;;;;;;5.03;3.47;;;6.10;99.10;;;;;;6103298;23;20002;-82
2023/11/27 04:34:59;;;;;;;7.40;4.40;;;6.10;99.00;;;;;;6103845;23;20002;-80
2023/11/27 04:37:25;;;;;;;8.52;4.45;;;6.10;99.00;;;;;;6103484;23;20032;-82
2023/11/27 04:39:51;;;;;;;5.32;3.25;;;6.10;99.10;;;;;;6103761;23;20038;-82
2023/11/27 04:42:17;;;;;;;4.15;2.85;;;6.10;99.20;;;;;;6129221;23;20009;-82
2023/11/27 04:44:43;;;;;;;4.47;2.95;;;6.10;99.20;;;;;;6104872;23;20005;-79
2023/11/27 04:47:09;;;;;;;8.85;4.30;;;6.20;99.10;;;;;;6104888;23;20017;-81
2023/11/27 04:49:35;;;;;;;7.32;3.78;;;6.10;99.00;;;;;;6130089;23;20061;-81
2023/11/27 04:52:00;;;;;;;7.07;3.65;;;6.10;99.10;;;;;;6105233;23;20009;-81
2023/11/27 04:54:26;;;;;;;5.70;3.20;;;6.00;99.40;;;;;;6103188;23;20037;-80
2023/11/27 04:56:52;;;;;;;7.75;4.20;;;6.00;99.20;;;;;;6129776;23;20034;-80
2023/11/27 04:59:17;;;;;;;5.03;2.92;;;6.00;99.30;;;;;;6132437;23;20005;-83
2023/11/27 05:01:43;;;;;;;4.68;3.17;;;6.00;99.50;;;;;;6129888;23;20006;-83
2023/11/27 05:04:09;;;;;;;3.88;2.72;;;6.00;99.50;;;;;;6103047;23;20068;-83
2023/11/27 05:06:34;;;;;;;5.45;3.42;;;6.00;99.50;;;;;;6127153;23;20002;-83
2023/11/27 05:09:00;;;;;;;5.18;3.20;;;6.00;99.60;;;;;;6129936;23;19998;-84
2023/11/27 05:11:26;;;;;;;4.35;3.08;;;6.00;99.60;;;;;;6103873;23;20001;-81
2023/11/27 05:13:51;;;;;;;5.85;3.30;;;5.90;99.60;;;;;;6130688;23;20033;-83
2023/11/27 05:16:17;;;;;;;3.72;2.80;;;6.00;99.60;;;;;;6105379;23;20006;-83
2023/11/27 05:18:44;;;;;;;5.90;3.20;;;6.00;99.60;;;;;;6130471;23;20559;-82
2023/11/27 05:21:14;;;;;;;3.50;2.50;;;6.00;99.50;;;;;;6104958;23;20020;-83
2023/11/27 05:23:43;;;;;;;2.67;2.22;;;6.00;99.50;;;;;;6104495;23;20354;-81
2023/11/27 05:26:10;;;;;;;2.85;2.00;;;6.00;99.60;;;;;;6104386;23;20006;-81
2023/11/27 05:28:36;;;;;;;3.20;2.42;;;6.00;99.60;;;;;;6104071;23;20102;-84
2023/11/27 05:31:02;;;;;;;2.80;2.30;;;6.10;99.60;;;;;;6104168;23;20479;-84
2023/11/27 05:33:27;;;;;;;2.28;1.88;;;6.10;99.50;;;;;;6129071;23;20049;-83
2023/11/27 05:35:54;;;;;;;4.50;2.60;;;6.10;99.50;;;;;;6129789;23;20072;-82
2023/11/27 05:38:19;;;;;;;4.78;2.45;;;6.10;99.50;;;;;;6103622;23;20005;-82
2023/11/27 05:40:45;;;;;;;4.22;2.80;;;6.10;99.40;;;;;;6131875;23;20636;-83
2023/11/27 05:43:12;;;;;;;2.50;2.00;;;6.10;99.40;;;;;;6104228;23;20009;-80
2023/11/27 05:45:38;;;;;;;2.10;1.77;;;6.10;99.40;;;;;;6104413;23;20010;-82
2023/11/27 05:48:05;;;;;;;3.33;1.92;;;6.10;99.40;;;;;;6105195;23;20085;-81
2023/11/27 05:50:32;;;;;;;3.00;2.35;;;6.10;99.40;;;;;;6103505;23;20380;-82
2023/11/27 05:52:58;;;;;;;2.65;2.15;;;6.10;99.40;;;;;;6104167;23;20403;-81
2023/11/27 05:55:24;;;;;;;3.67;2.47;;;6.00;99.40;;;;;;6102654;23;19998;-83
2023/11/27 05:57:50;;;;;;;3.00;2.47;;;6.00;99.40;;;;;;6129748;23;20507;-83
2023/11/27 06:00:15;;;;;;;2.55;2.00;;;6.00;99.50;;;;;;6103514;23;20009;-81
2023/11/27 06:02:41;;;;;;;2.30;1.92;;;6.00;99.50;;;;;;6129163;23;20002;-83
2023/11/27 06:05:07;;;;;;;2.50;1.92;;;6.00;99.50;;;;;;6103748;23;20013;-83
2023/11/27 06:07:36;;;;;;;4.13;1.90;;;6.00;99.50;;;;;;6105799;23;20335;-84
2023/11/27 06:10:06;;;;;;;2.55;1.90;;;6.00;99.50;;;;;;6104246;23;20076;-81
2023/11/27 06:12:32;;;;;;;2.97;2.08;;;6.00;99.50;;;;;;6130326;23;19998;-80
2023/11/27 06:14:58;;;;;;;3.15;1.55;;;6.00;99.50;;;;;;6103496;23;20006;-85
2023/11/27 06:17:23;;;;;;;1.90;1.70;;;6.00;99.40;;;;;;6130618;23;20006;-84
2023/11/27 06:19:49;;;;;;;2.90;1.70;;;6.00;99.40;;;;;;6129110;23;20010;-82
2023/11/27 06:22:15;;;;;;;2.70;2.38;;;6.00;99.30;;;;;;6129199;23;20006;-80
2023/11/27 06:24:40;;;;;;;2.45;2.05;;;6.00;99.30;;;;;;6129126;23;20009;-80
2023/11/27 06:27:06;;;;;;;3.85;2.13;;;6.00;99.40;;;;;;6102035;23;20009;-83
2023/11/27 06:29:31;;;;;;;3.13;2.55;;;6.00;99.30;;;;;;6102278;23;20002;-80
2023/11/27 06:31:57;;;;;;;4.30;2.60;;;5.90;99.30;;;;;;6107421;23;20002;-83
2023/11/27 06:34:22;;;;;;;3.08;2.25;;;5.90;99.40;;;;;;6128630;23;20032;-81
2023/11/27 06:36:48;;;;;;;2.45;2.05;;;5.90;99.40;;;;;;6130928;23;20001;-85
2023/11/27 06:39:13;;;;;;;1.88;1.60;;;5.90;99.70;;;;;;6132301;23;20002;-82
2023/11/27 06:41:39;;;;;;;2.95;1.90;;;5.90;99.40;;;;;;6104596;23;20002;-82
2023/11/27 06:44:05;;;;;;;2.78;1.95;;;5.90;99.30;;;;;;6102798;23;20001;-84
2023/11/27 06:46:31;;;;;;;2.30;1.70;;;5.90;99.30;;;;;;6104343;23;20002;-81
2023/11/27 06:48:56;;;;;;;2.08;1.88;;;5.90;99.30;;;;;;6129574;23;20026;-83
2023/11/27 06:51:22;;;;;;;1.98;1.70;;;6.00;99.30;;;;;;6103956;23;19998;-82
2023/11/27 06:53:48;;;;;;;3.90;2.08;;;5.90;99.30;;;;;;6130238;23;20053;-83
2023/11/27 06:56:13;;;;;;;2.00;1.58;;;5.90;99.40;;;;;;6103423;23;20010;-83
2023/11/27 06:58:39;;;;;;;2.00;1.80;;;5.90;99.40;;;;;;6102394;23;20006;-83
2023/11/27 07:01:11;;;;;;;2.38;2.10;;;5.90;99.50;;;;;;6102152;23;20153;-84
2023/11/27 07:03:37;;;;;;;2.92;2.05;;;5.90;99.50;;;;;;6126925;23;20008;-82
2023/11/27 07:06:04;;;;;;;2.35;1.90;;;5.80;99.40;;;;;;6132323;23;20053;-84
2023/11/27 07:08:31;;;;;;;2.92;2.10;;;5.80;99.30;;;;;;6107429;23;20009;-83
2023/11/27 07:10:57;;;;;;;2.10;1.65;;;5.80;99.30;;;;;;6132500;23;20005;-84
2023/11/27 07:13:25;;;;;;;2.08;1.50;;;5.80;99.40;;;;;;6106134;23;20077;-83
2023/11/27 07:15:50;;;;;;;2.30;1.60;;;5.80;99.30;;;;;;6107495;23;20005;-86
2023/11/27 07:18:16;;;;;;;1.80;1.40;;;5.80;99.40;;;;;;6107775;23;19998;-85
2023/11/27 07:20:41;;;;;;;2.35;2.03;;;5.90;99.30;;;;;;6132771;23;20696;-85
2023/11/27 07:23:07;;;;;;;2.80;2.08;;;5.90;99.20;;;;;;6105518;23;20017;-83
2023/11/27 07:25:33;;;;;;;2.33;1.80;;;5.80;99.20;;;;;;6108540;23;20005;-83
2023/11/27 07:27:58;;;;;;;1.85;1.40;;;5.70;99.20;;;;;;6102436;23;20010;-87
2023/11/27 07:30:28;;;;;;;2.75;1.70;;;5.70;99.30;;;;;;6099876;23;20020;-84
2023/11/27 07:32:56;;;;;;;2.42;1.48;;;5.70;99.40;;;;;;6100054;23;20006;-81
2023/11/27 07:35:21;;;;;;;1.92;1.70;;;5.70;99.40;;;;;;6101715;23;20017;-84
2023/11/27 07:37:49;;;;;;;2.60;2.20;;;5.60;99.30;;;;;;6101090;23;20006;-84
2023/11/27 07:40:15;;;;;;;1.90;1.70;;;5.60;99.60;;;;;;6115936;23;20009;-87
2023/11/27 07:42:44;;;;;;;3.17;2.22;;;5.70;99.70;;;;;;6116931;23;20014;-85
2023/11/27 07:45:10;;;;;;;3.00;1.80;;;5.70;99.70;;;;;;6099779;23;20057;-86
2023/11/27 07:47:38;;;;;;;2.00;1.70;;;5.70;99.60;;;;;;6126060;23;20002;-84
2023/11/27 07:50:14;;;;;;;2.15;1.73;;;5.60;99.60;;;;;;6100632;23;20343;-87
2023/11/27 07:52:39;;;;;;;2.38;1.88;;;5.70;99.60;;;;;;6101598;23;20006;-86
2023/11/27 07:55:06;;;;;;;2.10;1.50;;;5.60;99.50;;;;;;6101561;23;20002;-86
2023/11/27 07:57:33;;;;;;;1.50;1.40;;;5.70;99.60;;;;;;6102774;23;20006;-83
2023/11/27 08:00:06;;;;;;;1.77;1.67;;;5.70;99.50;;;;;;6104187;23;20002;-85
2023/11/27 08:02:32;;;;;;;2.03;1.75;;;5.70;99.50;;;;;;6101659;23;20014;-86
2023/11/27 08:04:59;;;;;;;1.50;1.40;;;5.70;99.60;;;;;;6103246;23;20009;-84
2023/11/27 08:07:24;;;;;;;2.63;1.90;;;5.70;99.60;;;;;;6100806;23;20037;-83
2023/11/27 08:09:50;;;;;;;3.05;1.95;;;5.60;99.40;;;;;;6097464;23;20439;-80
2023/11/27 08:12:16;;;;;;;2.63;1.73;;;5.60;99.60;;;;;;6128442;23;20009;-83
2023/11/27 08:14:42;;;;;;;2.30;1.70;;;5.60;99.60;;;;;;6100272;23;20005;-83
2023/11/27 08:17:07;;;;;;;1.88;1.75;;;5.50;99.60;;;;;;6128452;23;20006;-80
2023/11/27 08:19:34;;;;;;;2.03;1.83;;;5.50;99.80;;;;;;6131660;23;20017;-85
2023/11/27 08:22:03;;;;;;;3.28;1.60;;;5.50;99.80;;;;;;6100879;23;20514;-84
2023/11/27 08:24:34;;;;;;;3.60;1.75;;;5.50;99.90;;;;;;6099133;23;20451;-83
2023/11/27 08:27:01;;;;;;;1.90;1.70;;;5.60;99.90;;;;;;6100844;23;20085;-80
2023/11/27 08:29:33;;;;;;;1.70;1.60;;;5.60;99.90;;;;;;6097618;23;20081;-82
2023/11/27 08:32:00;;;;;;;1.77;1.50;;;5.60;99.90;;;;;;6102322;23;20387;-83
2023/11/27 08:34:41;;;;;;;3.45;2.08;;;5.60;99.90;;;;;;6101750;23;20066;-86
2023/11/27 08:37:09;;;;;;;2.15;1.95;;;5.50;99.80;;;;;;6101529;23;20006;-83
2023/11/27 08:39:38;;;;;;;2.05;1.85;;;5.60;99.90;;;;;;6100683;23;20014;-85
2023/11/27 08:42:05;;;;;;;2.45;1.83;;;5.60;99.90;;;;;;6101866;23;20005;-85
2023/11/27 08:44:38;;;;;;;3.65;2.10;;;5.60;99.90;;;;;;6102640;23;20009;-87
2023/11/27 08:47:05;;;;;;;1.75;1.65;;;5.60;99.90;;;;;;6108892;23;20016;-85
2023/11/27 08:49:30;;;;;;;2.03;1.55;;;5.60;99.90;;;;;;6112059;23;20002;-85
2023/11/27 08:51:56;;;;;;;1.85;1.73;;;5.60;99.90;;;;;;6107372;23;20145;-81
2023/11/27 08:54:24;;;;;;;2.42;1.65;;;5.50;99.90;;;;;;6104313;23;20052;-82
2023/11/27 08:56:51;;;;;;;2.85;1.90;;;5.50;99.90;;;;;;6130067;23;20005;-84
2023/11/27 08:59:17;;;;;;;1.80;1.70;;;5.60;99.90;;;;;;6102021;23;20061;-84
2023/11/27 09:01:43;;;;;;;1.70;1.55;;;5.50;99.90;;;;;;6102138;23;20297;-84
2023/11/27 09:04:09;;;;;;;1.90;1.65;;;5.50;99.90;;;;;;6099919;23;20514;-85
2023/11/27 09:06:35;;;;;;;1.80;1.52;;;5.60;99.90;;;;;;6099224;23;20006;-88
2023/11/27 09:09:03;;;;;;;3.55;1.95;;;5.60;99.90;;;;;;6098717;23;20002;-88
2023/11/27 09:11:28;;;;;;;2.25;1.73;;;5.60;99.90;;;;;;6101044;23;20057;-88
2023/11/27 09:13:54;;;;;;;2.22;1.80;;;5.60;99.90;;;;;;6100664;23;20021;-88
2023/11/27 09:16:20;;;;;;;2.67;1.92;;;5.60;99.90;;;;;;6099121;23;20032;-85
2023/11/27 09:18:46;;;;;;;2.45;1.77;;;5.60;99.90;;;;;;6100081;23;20379;-86
2023/11/27 09:21:11;;;;;;;2.25;1.65;;;5.60;99.90;;;;;;6101883;23;20016;-86
2023/11/27 09:23:37;;;;;;;2.30;1.58;;;5.60;99.90;;;;;;6100210;23;20033;-87
2023/11/27 09:26:05;;;;;;;1.65;1.52;;;5.60;99.90;;;;;;6101344;23;20435;-84
2023/11/27 09:28:30;;;;;;;1.92;1.60;;;5.60;99.90;;;;;;6099087;23;20081;-85
2023/11/27 09:30:56;;;;;;;1.88;1.60;;;5.60;99.90;;;;;;6100076;23;20036;-85
2023/11/27 09:33:22;;;;;;;2.25;1.80;;;5.60;99.90;;;;;;6101355;23;20005;-85
2023/11/27 09:35:47;;;;;;;2.47;1.70;;;5.70;99.90;;;;;;6100160;23;20050;-84
2023/11/27 09:38:13;;;;;;;1.38;1.27;;;5.70;99.90;;;;;;6100350;23;20010;-85
2023/11/27 09:40:44;;;;;;;1.65;1.40;;;5.70;99.90;;;;;;6100627;23;20001;-85
2023/11/27 09:43:12;;;;;;;1.40;1.30;;;5.80;99.90;;;;;;6099839;23;20014;-84
2023/11/27 09:45:39;;;;;;;1.65;1.50;;;5.80;99.90;;;;;;6130076;23;20032;-85
2023/11/27 09:48:10;;;;;;;1.45;1.35;;;5.80;99.90;;;;;;6131131;23;19998;-86
2023/11/27 09:50:36;;;;;;;1.53;1.43;;;5.80;99.90;;;;;;6100809;23;20002;-85
2023/11/27 09:53:06;;;;;;;2.08;1.88;;;5.80;99.90;;;;;;6127313;23;20253;-83
2023/11/27 09:55:37;;;;;;;2.00;1.60;;;5.70;99.90;;;;;;6100205;23;20073;-82
2023/11/27 09:58:05;;;;;;;2.45;2.10;;;5.70;99.90;;;;;;6126487;23;20006;-83
2023/11/27 10:00:48;;;;;;;2.17;1.70;;;5.70;99.90;;;;;;6123250;23;20013;-89
2023/11/27 10:03:14;;;;;;;2.10;1.90;;;5.70;99.90;;;;;;6099747;23;20005;-86
2023/11/27 10:05:43;;;;;;;1.65;1.48;;;5.70;99.90;;;;;;6127266;23;20088;-86
2023/11/27 10:08:09;;;;;;;1.67;1.58;;;5.80;99.90;;;;;;6127270;23;20008;-84
2023/11/27 10:10:35;;;;;;;1.40;1.30;;;5.80;99.90;;;;;;6098908;23;20045;-87
2023/11/27 10:13:06;;;;;;;1.70;1.40;;;5.70;99.90;;;;;;6098476;23;20002;-86
2023/11/27 10:15:33;;;;;;;1.60;1.50;;;5.80;99.90;;;;;;6100881;23;19998;-81
2023/11/27 10:18:00;;;;;;;2.22;1.92;;;5.80;99.90;;;;;;6128562;23;20009;-83
2023/11/27 10:20:26;;;;;;;2.30;1.58;;;5.80;99.90;;;;;;6119445;23;20009;-83
2023/11/27 10:22:52;;;;;;;1.80;1.52;;;5.80;99.90;;;;;;6128021;23;20009;-82
2023/11/27 10:25:20;;;;;;;1.90;1.63;;;5.70;99.90;;;;;;6128869;23;20084;-82
2023/11/27 10:27:46;;;;;;;1.50;1.40;;;5.70;99.90;;;;;;6128068;23;20006;-83
2023/11/27 10:30:20;;;;;;;2.35;1.60;;;5.80;99.90;;;;;;6125858;23;20089;-84
2023/11/27 10:32:46;;;;;;;1.83;1.70;;;5.80;99.90;;;;;;6125393;23;20458;-83
2023/11/27 10:35:17;;;;;;;2.10;1.70;;;5.80;99.90;;;;;;6123235;23;20068;-85
2023/11/27 10:37:43;;;;;;;1.40;1.30;;;5.90;99.90;;;;;;6124866;23;20083;-86
2023/11/27 10:40:14;;;;;;;1.50;1.40;;;5.90;99.90;;;;;;6126910;23;20057;-84
2023/11/27 10:42:50;;;;;;;1.63;1.42;;;5.90;99.90;;;;;;6126229;23;20006;-83
2023/11/27 10:45:18;;;;;;;1.45;1.30;;;5.90;99.90;;;;;;6127078;23;20082;-82
2023/11/27 10:47:49;;;;;;;1.58;1.40;;;6.00;99.90;;;;;;6123736;23;20010;-84
2023/11/27 10:50:16;;;;;;;1.50;1.40;;;6.00;99.90;;;;;;6123921;23;20005;-84
2023/11/27 10:52:44;;;;;;;1.30;1.20;;;6.10;99.90;;;;;;6124744;23;20431;-88
2023/11/27 10:55:18;;;;;;;1.00;1.00;;;6.10;99.90;;;;;;6124796;23;19998;-86
2023/11/27 10:57:50;;;;;;;1.70;1.60;;;6.20;99.90;;;;;;6124035;23;20017;-86
2023/11/27 11:00:38;;;;;;;1.60;1.40;;;6.20;99.90;;;;;;6124269;23;20005;-85
2023/11/27 11:03:23;;;;;;;1.40;1.30;;;6.20;99.90;;;;;;6125604;23;20013;-86
2023/11/27 11:05:53;;;;;;;1.40;1.30;;;6.20;99.90;;;;;;6127258;23;20013;-87
2023/11/27 11:08:27;;;;;;;1.30;1.20;;;6.20;99.90;;;;;;6125556;23;20010;-85
2023/11/27 11:10:57;;;;;;;1.40;1.30;;;6.20;99.90;;;;;;6126262;23;20072;-82
2023/11/27 11:13:27;;;;;;;1.40;1.30;;;6.20;99.90;;;;;;6127775;23;19998;-84
2023/11/27 11:16:13;;;;;;;1.40;1.30;;;6.10;99.90;;;;;;6125240;23;20009;-82
2023/11/27 11:22:01;;;;;;;1.40;1.30;;;6.20;99.90;;;;;;6148642;23;20494;-79
2023/11/27 11:24:40;;;;;;;1.55;1.30;;;6.40;99.90;;;;;;6154724;23;20005;-80
2023/11/27 11:27:07;;;;;;;1.40;1.30;;;6.30;99.90;;;;;;6154873;23;20078;-79
2023/11/27 11:29:35;;;;;;;1.42;1.33;;;6.30;99.90;;;;;;6156240;23;20002;-81
2023/11/27 11:32:05;;;;;;;1.50;1.40;;;6.30;99.90;;;;;;6130265;23;20351;-77
2023/11/27 11:34:40;;;;;;;1.40;1.20;;;6.20;99.90;;;;;;6132032;23;20006;-79
2023/11/27 11:37:07;;;;;;;1.42;1.33;;;6.20;99.90;;;;;;6159071;23;20013;-79
2023/11/27 11:39:36;;;;;;;1.30;1.20;;;6.30;99.90;;;;;;6155636;23;20002;-82
2023/11/27 11:42:13;;;;;;;1.38;1.20;;;6.30;99.90;;;;;;6131207;23;20002;-81
2023/11/27 11:44:39;;;;;;;1.30;1.20;;;6.30;99.90;;;;;;6156171;23;20006;-85
2023/11/27 11:47:29;;;;;;;1.60;1.50;;;6.30;99.90;;;;;;6133561;23;20005;-82
2023/11/27 11:50:24;;;;;;;1.40;1.30;;;6.30;99.90;;;;;;6161972;23;19997;-80
2023/11/27 11:52:55;;;;;;;1.52;1.42;;;6.40;99.90;;;;;;6132344;23;20012;-83
2023/11/27 11:55:32;;;;;;;1.67;1.30;;;6.40;99.90;;;;;;6129733;23;19998;-79
2023/11/27 11:58:08;;;;;;;1.40;1.30;;;6.40;99.90;;;;;;6155814;23;20431;-79
2023/11/27 12:00:43;;;;;;;1.40;1.30;;;6.50;99.90;;;;;;6128876;23;20553;-84
2023/11/27 12:03:15;;;;;;;1.40;1.30;;;6.40;99.90;;;;;;6156970;23;20005;-86
2023/11/27 12:05:53;;;;;;;1.27;1.17;;;6.40;99.90;;;;;;6159070;23;20005;-83
2023/11/27 12:08:21;;;;;;;1.30;1.20;;;6.50;99.90;;;;;;6137186;23;20001;-84
2023/11/27 12:10:48;;;;;;;1.40;1.30;;;6.50;99.90;;;;;;6141085;23;20081;-83
2023/11/27 12:13:20;;;;;;;1.40;1.30;;;6.50;99.90;;;;;;6138593;23;20001;-83
2023/11/27 12:15:50;;;;;;;1.48;1.38;;;6.50;99.90;;;;;;6131694;23;20020;-83
2023/11/27 12:18:19;;;;;;;1.48;1.23;;;6.50;99.90;;;;;;6130172;23;20005;-81
2023/11/27 12:20:47;;;;;;;1.40;1.30;;;6.50;99.90;;;;;;6130449;23;20033;-82
2023/11/27 12:23:13;;;;;;;1.48;1.30;;;6.50;99.90;;;;;;6131593;23;20034;-80
2023/11/27 12:25:42;;;;;;;1.27;1.10;;;6.50;99.90;;;;;;6132064;23;20385;-82
2023/11/27 12:28:11;;;;;;;1.30;1.20;;;6.50;99.90;;;;;;6128289;23;20008;-79
2023/11/27 12:30:38;;;;;;;1.40;1.30;;;6.60;99.90;;;;;;6132109;23;20056;-82
2023/11/27 12:33:04;;;;;;;1.30;1.20;;;6.50;99.90;;;;;;6161065;23;19997;-82
2023/11/27 12:35:33;;;;;;;2.47;1.50;;;6.50;99.90;;;;;;6145004;23;20002;-83
2023/11/27 12:38:06;;;;;;;1.50;1.30;;;6.50;99.90;;;;;;6146799;23;20015;-82
2023/11/27 12:40:35;;;;;;;1.45;1.35;;;6.50;99.90;;;;;;6142875;23;20010;-82
2023/11/27 12:43:04;;;;;;;1.30;1.20;;;6.60;99.90;;;;;;6138119;23;19989;-83
2023/11/27 12:45:31;;;;;;;1.63;1.30;;;6.60;99.90;;;;;;6158156;23;20009;-85
2023/11/27 12:47:58;;;;;;;1.65;1.50;;;6.60;99.90;;;;;;6156855;23;20060;-81
2023/11/27 12:50:31;;;;;;;1.40;1.30;;;6.50;99.90;;;;;;6156477;23;19997;-83
2023/11/27 12:53:07;;;;;;;1.65;1.55;;;6.50;99.90;;;;;;6157282;23;20001;-80
2023/11/27 12:55:49;;;;;;;1.40;1.30;;;6.60;99.90;;;;;;6144687;23;20334;-86
2023/11/27 12:58:17;;;;;;;2.45;1.40;;;6.50;99.90;;;;;;6176080;23;19997;-84
2023/11/27 13:00:44;;;;;;;1.58;1.25;;;6.50;99.90;;;;;;6135917;23;20339;-81